Time,TemperatureF,DewpointF,PressureIn,WindDirection,WindDirectionDegrees,WindSpeedMPH,WindSpeedGustMPH,Humidity,HourlyPrecipIn,Conditions,Clouds,dailyrainin,SoftwareType,DateUTC
2013-04-15 00:02:00,59.0,28.0,-100.00,WSW,254,18.0,34.0,31,0.00,,,0.00,,2013-04-15 07:02:00,
2013-04-15 00:43:00,57.0,27.0,-100.00,West,259,19.0,32.0,31,0.00,,,0.00,,2013-04-15 07:43:00,
2013-04-15 00:53:00,57.0,27.0,-100.00,West,259,19.0,32.0,31,0.00,,,0.00,,2013-04-15 07:53:00,
2013-04-15 01:02:00,57.0,27.0,-100.00,West,259,19.0,32.0,31,0.00,,,0.00,,2013-04-15 08:02:00,
2013-04-15 01:12:00,57.0,27.0,-100.00,West,259,19.0,32.0,31,0.00,,,0.00,,2013-04-15 08:12:00,
2013-04-15 01:43:00,56.0,27.0,-100.00,WSW,253,12.0,29.0,32,0.00,,,0.00,,2013-04-15 08:43:00,
2013-04-15 01:52:00,56.0,27.0,-100.00,WSW,253,12.0,29.0,32,0.00,,,0.00,,2013-04-15 08:52:00,
2013-04-15 02:02:00,56.0,27.0,-100.00,WSW,253,12.0,29.0,32,0.00,,,0.00,,2013-04-15 09:02:00,
2013-04-15 02:12:00,56.0,27.0,-100.00,WSW,253,12.0,29.0,32,0.00,,,0.00,,2013-04-15 09:12:00,
2013-04-15 02:43:00,56.0,28.0,-100.00,West,266,13.0,35.0,34,0.00,,,0.00,,2013-04-15 09:43:00,
2013-04-15 02:53:00,56.0,28.0,-100.00,West,266,13.0,35.0,34,0.00,,,0.00,,2013-04-15 09:53:00,
2013-04-15 03:02:00,56.0,28.0,-100.00,West,266,13.0,35.0,34,0.00,,,0.00,,2013-04-15 10:02:00,
2013-04-15 03:12:00,56.0,28.0,-100.00,West,266,13.0,35.0,34,0.00,,,0.00,,2013-04-15 10:12:00,
2013-04-15 03:33:00,54.0,28.0,-100.00,WSW,249,15.0,28.0,36,0.00,,,0.00,,2013-04-15 10:33:00,
2013-04-15 03:42:00,54.0,28.0,-100.00,WSW,249,15.0,28.0,36,0.00,,,0.00,,2013-04-15 10:42:00,
2013-04-15 04:03:00,54.0,28.0,-100.00,WSW,249,15.0,28.0,36,0.00,,,0.00,,2013-04-15 11:03:00,
2013-04-15 04:12:00,54.0,28.0,-100.00,WSW,249,15.0,28.0,36,0.00,,,0.00,,2013-04-15 11:12:00,
2013-04-15 04:43:00,54.0,31.0,-100.00,WSW,253,15.0,27.0,41,0.00,,,0.00,,2013-04-15 11:43:00,
2013-04-15 04:53:00,54.0,31.0,-100.00,WSW,253,15.0,27.0,41,0.00,,,0.00,,2013-04-15 11:53:00,
2013-04-15 05:03:00,54.0,31.0,-100.00,WSW,253,15.0,27.0,41,0.00,,,0.00,,2013-04-15 12:03:00,
2013-04-15 05:13:00,54.0,31.0,-100.00,WSW,253,15.0,27.0,41,0.00,,,0.00,,2013-04-15 12:13:00,
2013-04-15 05:43:00,53.0,31.0,-100.00,WSW,256,14.0,35.0,43,0.00,,,0.00,,2013-04-15 12:43:00,
2013-04-15 05:53:00,53.0,31.0,-100.00,WSW,256,14.0,35.0,43,0.00,,,0.00,,2013-04-15 12:53:00,
2013-04-15 06:03:00,53.0,31.0,-100.00,WSW,256,14.0,35.0,43,0.00,,,0.00,,2013-04-15 13:03:00,
2013-04-15 06:12:00,53.0,31.0,-100.00,WSW,256,14.0,35.0,43,0.00,,,0.00,,2013-04-15 13:12:00,
2013-04-15 06:43:00,52.0,33.0,-100.00,WSW,245,12.0,30.0,49,0.00,,,0.00,,2013-04-15 13:43:00,
2013-04-15 06:53:00,52.0,33.0,-100.00,WSW,245,12.0,30.0,49,0.00,,,0.00,,2013-04-15 13:53:00,
2013-04-15 07:03:00,52.0,33.0,-100.00,WSW,245,12.0,30.0,49,0.00,,,0.00,,2013-04-15 14:03:00,
2013-04-15 07:12:00,52.0,33.0,-100.00,WSW,245,12.0,30.0,49,0.00,,,0.00,,2013-04-15 14:12:00,
2013-04-15 07:44:00,52.0,34.0,-100.00,WSW,241,15.0,29.0,51,0.00,,,0.00,,2013-04-15 14:44:00,
2013-04-15 07:54:00,52.0,34.0,-100.00,WSW,241,15.0,29.0,51,0.00,,,0.00,,2013-04-15 14:54:00,
2013-04-15 08:03:00,52.0,34.0,-100.00,WSW,241,15.0,29.0,51,0.00,,,0.00,,2013-04-15 15:03:00,
2013-04-15 08:12:00,52.0,34.0,-100.00,WSW,241,15.0,29.0,51,0.00,,,0.00,,2013-04-15 15:12:00,
2013-04-15 08:44:00,52.0,37.0,-100.00,WSW,244,13.0,26.0,57,0.00,,,0.00,,2013-04-15 15:44:00,
2013-04-15 08:54:00,52.0,37.0,-100.00,WSW,244,13.0,26.0,57,0.00,,,0.00,,2013-04-15 15:54:00,
2013-04-15 09:04:00,52.0,37.0,-100.00,WSW,244,13.0,26.0,57,0.00,,,0.00,,2013-04-15 16:04:00,
2013-04-15 09:12:00,52.0,37.0,-100.00,WSW,244,13.0,26.0,57,0.00,,,0.00,,2013-04-15 16:12:00,
2013-04-15 09:44:00,53.0,38.0,-100.00,SW,234,14.0,27.0,56,0.00,,,0.00,,2013-04-15 16:44:00,
2013-04-15 09:53:00,53.0,38.0,-100.00,SW,234,14.0,27.0,56,0.00,,,0.00,,2013-04-15 16:53:00,
2013-04-15 10:03:00,53.0,38.0,-100.00,SW,234,14.0,27.0,56,0.00,,,0.00,,2013-04-15 17:03:00,
2013-04-15 10:13:00,53.0,38.0,-100.00,SW,234,14.0,27.0,56,0.00,,,0.00,,2013-04-15 17:13:00,
2013-04-15 10:43:00,53.0,37.0,-100.00,SSW,209,24.0,36.0,55,0.00,,,0.00,,2013-04-15 17:43:00,
2013-04-15 10:52:00,53.0,37.0,-100.00,SSW,209,24.0,36.0,55,0.00,,,0.00,,2013-04-15 17:52:00,
2013-04-15 11:02:00,53.0,37.0,-100.00,SSW,209,24.0,36.0,55,0.00,,,0.00,,2013-04-15 18:02:00,
2013-04-15 11:12:00,53.0,37.0,-100.00,SSW,209,24.0,36.0,55,0.00,,,0.00,,2013-04-15 18:12:00,
2013-04-15 11:42:00,54.0,38.0,-100.00,SW,216,25.0,36.0,54,0.00,,,0.00,,2013-04-15 18:42:00,
2013-04-15 11:52:00,54.0,38.0,-100.00,SW,216,25.0,36.0,54,0.00,,,0.00,,2013-04-15 18:52:00,
2013-04-15 12:02:00,54.0,38.0,-100.00,SW,216,25.0,36.0,54,0.00,,,0.00,,2013-04-15 19:02:00,
2013-04-15 12:12:00,54.0,38.0,-100.00,SW,216,25.0,36.0,54,0.00,,,0.00,,2013-04-15 19:12:00,
2013-04-15 12:58:00,54.0,37.0,-100.00,SSW,211,27.0,41.0,53,0.00,,,0.00,,2013-04-15 19:58:00,
2013-04-15 13:02:00,54.0,37.0,-100.00,SSW,211,27.0,41.0,53,0.00,,,0.00,,2013-04-15 20:02:00,
2013-04-15 13:11:00,54.0,37.0,-100.00,SSW,211,27.0,41.0,53,0.00,,,0.00,,2013-04-15 20:11:00,
2013-04-15 13:32:00,54.0,37.0,-100.00,SSW,208,22.0,45.0,52,0.00,,,-99.99,,2013-04-15 20:32:00,
2013-04-15 13:42:00,54.0,37.0,-100.00,SSW,208,22.0,45.0,52,0.00,,,-99.99,,2013-04-15 20:42:00,
2013-04-15 13:52:00,54.0,37.0,-100.00,SSW,208,22.0,45.0,52,0.00,,,-99.99,,2013-04-15 20:52:00,
2013-04-15 14:02:00,54.0,37.0,-100.00,SSW,208,22.0,45.0,52,0.00,,,-99.99,,2013-04-15 21:02:00,
2013-04-15 14:11:00,54.0,37.0,-100.00,SSW,208,22.0,45.0,52,0.00,,,-99.99,,2013-04-15 21:11:00,
2013-04-15 14:43:00,56.0,36.0,-100.00,SW,217,13.0,37.0,47,0.00,,,0.00,,2013-04-15 21:43:00,
2013-04-15 14:53:00,56.0,36.0,-100.00,SW,217,13.0,37.0,47,0.00,,,0.00,,2013-04-15 21:53:00,
2013-04-15 15:02:00,56.0,36.0,-100.00,SW,217,13.0,37.0,47,0.00,,,0.00,,2013-04-15 22:02:00,
2013-04-15 15:13:00,56.0,36.0,-100.00,SW,217,13.0,37.0,47,0.00,,,0.00,,2013-04-15 22:13:00,
2013-04-15 15:42:00,56.0,34.0,-100.00,WNW,289,17.0,37.0,43,0.00,,,0.00,,2013-04-15 22:42:00,
2013-04-15 15:52:00,56.0,34.0,-100.00,WNW,289,17.0,37.0,43,0.00,,,0.00,,2013-04-15 22:52:00,
2013-04-15 16:02:00,56.0,34.0,-100.00,WNW,289,17.0,37.0,43,0.00,,,0.00,,2013-04-15 23:02:00,
2013-04-15 16:12:00,56.0,34.0,-100.00,WNW,289,17.0,37.0,43,0.00,,,0.00,,2013-04-15 23:12:00,
2013-04-15 16:32:00,58.0,34.0,-100.00,West,269,12.0,29.0,41,0.00,,,0.00,,2013-04-15 23:32:00,
2013-04-15 16:42:00,58.0,34.0,-100.00,West,269,12.0,29.0,41,0.00,,,0.00,,2013-04-15 23:42:00,
2013-04-15 16:52:00,58.0,34.0,-100.00,West,269,12.0,29.0,41,0.00,,,0.00,,2013-04-15 23:52:00,
2013-04-15 17:02:00,58.0,34.0,-100.00,West,269,12.0,29.0,41,0.00,,,0.00,,2013-04-16 00:02:00,
2013-04-15 17:11:00,58.0,34.0,-100.00,West,269,12.0,29.0,41,0.00,,,0.00,,2013-04-16 00:11:00,
2013-04-15 17:42:00,57.0,32.0,-100.00,WSW,244,16.0,29.0,38,0.00,,,-99.99,,2013-04-16 00:42:00,
2013-04-15 17:52:00,57.0,32.0,-100.00,WSW,244,16.0,29.0,38,0.00,,,-99.99,,2013-04-16 00:52:00,
2013-04-15 18:02:00,57.0,32.0,-100.00,WSW,244,16.0,29.0,38,0.00,,,-99.99,,2013-04-16 01:02:00,
2013-04-15 18:12:00,57.0,32.0,-100.00,WSW,244,16.0,29.0,38,0.00,,,-99.99,,2013-04-16 01:12:00,
2013-04-15 18:42:00,55.0,31.0,-100.00,WSW,241,14.0,33.0,39,0.00,,,0.00,,2013-04-16 01:42:00,
2013-04-15 18:52:00,55.0,31.0,-100.00,WSW,241,14.0,33.0,39,0.00,,,0.00,,2013-04-16 01:52:00,
2013-04-15 19:02:00,55.0,31.0,-100.00,WSW,241,14.0,33.0,39,0.00,,,0.00,,2013-04-16 02:02:00,
2013-04-15 19:12:00,55.0,31.0,-100.00,WSW,241,14.0,33.0,39,0.00,,,0.00,,2013-04-16 02:12:00,
2013-04-15 19:42:00,53.0,28.0,-100.00,NNW,341,8.0,24.0,38,0.00,,,0.00,,2013-04-16 02:42:00,
2013-04-15 19:52:00,53.0,28.0,-100.00,NNW,341,8.0,24.0,38,0.00,,,0.00,,2013-04-16 02:52:00,
2013-04-15 20:02:00,53.0,28.0,-100.00,NNW,341,8.0,24.0,38,0.00,,,0.00,,2013-04-16 03:02:00,
2013-04-15 20:12:00,53.0,28.0,-100.00,NNW,341,8.0,24.0,38,0.00,,,0.00,,2013-04-16 03:12:00,
2013-04-15 20:43:00,52.0,30.0,-100.00,WNW,301,6.0,23.0,42,0.00,,,0.00,,2013-04-16 03:43:00,
2013-04-15 20:52:00,52.0,30.0,-100.00,WNW,301,6.0,23.0,42,0.00,,,0.00,,2013-04-16 03:52:00,
2013-04-15 21:02:00,52.0,30.0,-100.00,WNW,301,6.0,23.0,42,0.00,,,0.00,,2013-04-16 04:02:00,
2013-04-15 21:12:00,52.0,30.0,-100.00,WNW,301,6.0,23.0,42,0.00,,,0.00,,2013-04-16 04:12:00,
2013-04-15 21:33:00,51.0,30.0,-100.00,WSW,254,11.0,22.0,45,0.00,,,0.00,,2013-04-16 04:33:00,
2013-04-15 21:42:00,51.0,30.0,-100.00,WSW,254,11.0,22.0,45,0.00,,,0.00,,2013-04-16 04:42:00,
2013-04-15 21:53:00,51.0,30.0,-100.00,WSW,254,11.0,22.0,45,0.00,,,0.00,,2013-04-16 04:53:00,
2013-04-15 22:02:00,51.0,30.0,-100.00,WSW,254,11.0,22.0,45,0.00,,,0.00,,2013-04-16 05:02:00,
2013-04-15 22:12:00,51.0,30.0,-100.00,WSW,254,11.0,22.0,45,0.00,,,0.00,,2013-04-16 05:12:00,
2013-04-15 22:42:00,50.0,29.0,-100.00,West,265,7.0,23.0,44,0.00,,,0.00,,2013-04-16 05:42:00,
2013-04-15 22:52:00,50.0,29.0,-100.00,West,265,7.0,23.0,44,0.00,,,0.00,,2013-04-16 05:52:00,
2013-04-15 23:02:00,50.0,29.0,-100.00,West,265,7.0,23.0,44,0.00,,,0.00,,2013-04-16 06:02:00,
2013-04-15 23:12:00,50.0,29.0,-100.00,West,265,7.0,23.0,44,0.00,,,0.00,,2013-04-16 06:12:00,
2013-04-15 23:32:00,45.0,30.0,-100.00,West,263,11.0,20.0,55,0.00,,,-99.99,,2013-04-16 06:32:00,